Decoded Metar for KLAS (LAS VEGAS in NV, USA) (IATA:LAS) | Meteo·Mobile Aviation Weather
aviador You're here:

KLAS Decoded Metar

LAS VEGAS in NV, USA
Report Time2018-09-23 11:56:00
UTC Time2018-09-23 12:41:24
Flight Rules vfr VFR
Wind140° at 06 kt
W.Decomp.*RWY 07: 3.4 kt HW 4.9 kt RCW
RWY 19: 2.5 kt HW 5.4 kt LCW
W.Rank140° ranks 19
Current wind is above 140° avg. (5.4)
Visibility9999 m
Phenomena:N/A
Clouds:Scattered 120 Hf
Expected CloudBase > 8,800 ft AGL from Temp-Dew spread
CeilingNone
Temp27°C (ISA +16)
Dew Point05°C (24% RH)
Heat Index26.2°C
AAT23.7°C
QNH1011 hPa
Density Alt4,127 ft
Elevation2,087 ft
Report Wrong Elevation
Raw Report
KLAS 231156Z 14006KT 10SM SCT120 27/05 A2986 RMK AO2 SLP080
T02720050 10300 20267 53001=

Extra information for KLAS:More info

Metar Taf Metar & Taf Last 4 Metars F.Rules Stats Wind Profile Meteogram Temp Stats Airport Information Weather charts Add Link Nearby VenuesMetar ALERT Operation Metar Decoded Social comments

AIRNAV info for KLAS